createdAt,value
2023-05-08T00:55:55.164Z,15.76
2023-05-08T00:58:22.867Z,15.79
2023-05-08T01:12:45.977Z,15.57
2023-05-08T01:36:34.520Z,15.81
2023-05-08T01:39:15.042Z,15.82
2023-05-08T01:41:46.544Z,15.82
2023-05-08T01:44:15.623Z,15.80
2023-05-08T02:10:07.229Z,15.34
2023-05-08T02:15:29.747Z,15.33
2023-05-08T02:17:59.066Z,15.33
2023-05-08T02:20:34.454Z,15.34
2023-05-08T02:25:44.811Z,15.34
2023-05-08T02:28:13.784Z,15.39
2023-05-08T02:45:16.900Z,15.59
2023-05-08T02:50:46.199Z,15.59
2023-05-08T02:53:18.405Z,15.52
2023-05-08T02:55:48.989Z,15.44
2023-05-08T02:58:19.084Z,15.35
2023-05-08T03:06:47.090Z,15.20
2023-05-08T03:15:06.933Z,15.13
2023-05-08T03:17:36.939Z,15.13
2023-05-08T03:20:06.770Z,15.18
2023-05-08T03:22:37.423Z,15.22
2023-05-08T03:25:06.088Z,15.23
2023-05-08T03:27:34.727Z,15.24
2023-05-08T03:30:02.357Z,15.24
2023-05-08T03:35:16.633Z,15.25
2023-05-08T03:37:45.872Z,15.26
2023-05-08T03:40:20.394Z,15.28
2023-05-08T03:42:50.860Z,15.30
2023-05-08T03:45:20.318Z,15.34
2023-05-08T03:47:52.925Z,15.36
2023-05-08T03:50:22.014Z,15.37
2023-05-08T03:52:50.656Z,15.38
2023-05-08T03:55:17.408Z,15.39
2023-05-08T03:57:49.080Z,15.40
2023-05-08T04:00:22.128Z,15.44
2023-05-08T04:02:52.631Z,15.42
2023-05-08T04:05:25.050Z,15.40
2023-05-08T04:07:58.216Z,15.35
2023-05-08T04:10:29.650Z,15.31
2023-05-08T04:13:02.927Z,15.28
2023-05-08T04:15:30.829Z,15.29
2023-05-08T04:17:59.790Z,15.32
2023-05-08T04:20:27.640Z,15.33
2023-05-08T04:22:57.737Z,15.32
2023-05-08T04:25:28.786Z,15.33
2023-05-08T04:27:57.502Z,15.36
2023-05-08T04:30:24.950Z,15.39
2023-05-08T04:32:52.432Z,15.40
2023-05-08T04:35:27.374Z,15.43
2023-05-08T04:38:02.762Z,15.40
2023-05-08T04:40:31.001Z,15.39
2023-05-08T04:42:58.240Z,15.37
2023-05-08T04:45:25.035Z,15.38
2023-05-08T04:47:52.164Z,15.40
2023-05-08T04:50:21.614Z,15.41
2023-05-08T04:52:48.520Z,15.39
2023-05-08T04:55:15.667Z,15.41
2023-05-08T04:57:44.548Z,15.39
2023-05-08T05:00:12.262Z,15.43
2023-05-08T05:02:41.675Z,15.45
2023-05-08T05:05:09.431Z,15.48
2023-05-08T05:07:36.408Z,15.49
2023-05-08T05:10:04.548Z,15.49
2023-05-08T05:12:32.916Z,15.48
2023-05-08T05:15:02.556Z,15.45
2023-05-08T05:17:33.401Z,15.46
2023-05-08T05:20:03.825Z,15.48
2023-05-08T05:22:33.229Z,15.50
2023-05-08T05:25:00.067Z,15.51
2023-05-08T05:27:26.625Z,15.53
2023-05-08T05:29:53.490Z,15.53
2023-05-08T05:32:21.607Z,15.55
2023-05-08T05:34:48.563Z,15.58
2023-05-08T05:37:15.153Z,15.59
2023-05-08T05:39:42.569Z,15.61
2023-05-08T05:42:09.256Z,15.64
2023-05-08T05:44:36.932Z,15.64
2023-05-08T05:47:06.088Z,15.65
2023-05-08T05:49:34.726Z,15.65
2023-05-08T05:52:01.474Z,15.63
2023-05-08T05:54:28.329Z,15.62
2023-05-08T05:59:35.747Z,15.67
2023-05-08T06:02:04.004Z,15.67
2023-05-08T06:04:30.891Z,15.69
2023-05-08T06:06:59.073Z,15.70
2023-05-08T06:09:26.029Z,15.71
2023-05-08T06:11:53.180Z,15.73
2023-05-08T06:14:21.084Z,15.74
2023-05-08T06:16:48.407Z,15.76
2023-05-08T06:19:15.463Z,15.77
2023-05-08T06:21:41.997Z,15.78
2023-05-08T06:24:09.955Z,15.82
2023-05-08T06:26:36.719Z,15.83
2023-05-08T06:29:03.358Z,15.84
2023-05-08T06:31:30.063Z,15.84
2023-05-08T06:33:56.612Z,15.86
2023-05-08T06:36:23.402Z,15.85
2023-05-08T06:38:50.077Z,15.85
2023-05-08T06:41:18.430Z,15.87
2023-05-08T06:43:45.702Z,15.87
2023-05-08T06:46:13.766Z,15.89
2023-05-08T06:48:41.342Z,15.91
2023-05-08T06:51:08.223Z,15.91
2023-05-08T06:53:34.953Z,15.90
2023-05-08T06:56:01.559Z,15.88
2023-05-08T06:58:31.594Z,15.87
2023-05-08T07:00:59.454Z,15.88
2023-05-08T07:03:26.373Z,15.89
2023-05-08T07:05:53.854Z,15.92
2023-05-08T07:08:20.631Z,15.95
2023-05-08T07:10:47.437Z,15.98
2023-05-08T07:13:13.997Z,16.01
2023-05-08T07:15:43.194Z,16.04
2023-05-08T07:18:10.314Z,16.07
2023-05-08T07:20:37.190Z,16.08
2023-05-08T07:23:03.976Z,16.04
2023-05-08T07:25:30.452Z,16.01
2023-05-08T07:27:58.710Z,16.04
2023-05-08T07:30:27.074Z,16.04
2023-05-08T07:32:55.520Z,16.01
2023-05-08T07:35:22.303Z,15.99
2023-05-08T07:37:49.063Z,16.00
2023-05-08T07:40:17.535Z,16.05
2023-05-08T07:42:44.404Z,16.06
2023-05-08T07:45:12.668Z,16.10
2023-05-08T07:47:50.772Z,16.08
2023-05-08T07:50:19.006Z,16.06
2023-05-08T07:52:49.787Z,16.08
2023-05-08T07:55:17.018Z,16.11
2023-05-08T07:57:44.255Z,16.14
2023-05-08T08:00:12.301Z,16.17
2023-05-08T08:02:42.418Z,16.14
2023-05-08T08:05:10.986Z,16.13
2023-05-08T08:07:39.787Z,16.15
2023-05-08T08:10:07.444Z,16.16
2023-05-08T08:12:34.193Z,16.18
2023-05-08T08:15:01.119Z,16.18
2023-05-08T08:17:28.941Z,16.18
2023-05-08T08:19:56.077Z,16.22
2023-05-08T08:22:22.710Z,16.30
2023-05-08T08:24:54.046Z,16.35
2023-05-08T08:27:21.515Z,16.42
2023-05-08T08:29:48.263Z,16.42
2023-05-08T08:32:14.935Z,16.41
2023-05-08T08:34:41.526Z,16.33
2023-05-08T08:37:15.928Z,16.24
2023-05-08T08:39:42.933Z,16.17
2023-05-08T08:42:12.386Z,16.12
2023-05-08T08:44:40.675Z,16.03
2023-05-08T08:47:12.155Z,15.98
2023-05-08T08:49:43.134Z,15.96
2023-05-08T08:52:21.736Z,15.96
2023-05-08T08:54:49.778Z,15.98
2023-05-08T08:57:19.908Z,15.99
2023-05-08T08:59:46.653Z,15.98
2023-05-08T09:02:25.144Z,15.99
2023-05-08T09:07:33.094Z,16.02
2023-05-08T09:09:59.949Z,16.05
2023-05-08T09:15:13.045Z,16.10
2023-05-08T09:17:43.736Z,16.15
2023-05-08T09:20:23.233Z,16.19
2023-05-08T14:44:12.136Z,16.99
2023-05-08T14:46:38.685Z,16.98
2023-05-08T14:51:46.242Z,16.84
2023-05-08T14:54:15.076Z,16.80
2023-05-08T14:56:47.220Z,16.79
2023-05-08T14:59:17.691Z,16.74
2023-05-08T15:01:44.663Z,16.68
2023-05-08T15:04:11.549Z,16.67
2023-05-08T15:06:40.373Z,16.70
2023-05-08T15:09:08.264Z,16.75
2023-05-08T15:11:36.478Z,16.79
2023-05-08T15:14:03.387Z,16.82
2023-05-08T15:16:32.619Z,16.83
2023-05-08T15:18:59.229Z,16.80
2023-05-08T15:21:29.116Z,16.77
2023-05-08T15:23:55.672Z,16.74
2023-05-08T15:26:22.680Z,16.69
2023-05-08T15:28:49.966Z,16.66
2023-05-08T15:31:16.654Z,16.66
2023-05-08T15:33:45.462Z,16.70
2023-05-08T15:36:13.602Z,16.72
2023-05-08T15:38:40.816Z,16.69
2023-05-08T15:41:07.646Z,16.70
2023-05-08T15:43:34.279Z,16.69
2023-05-08T15:46:01.374Z,16.66
2023-05-08T15:48:28.001Z,16.62
2023-05-08T15:50:56.888Z,16.56
2023-05-08T15:53:23.820Z,16.49
2023-05-08T15:55:50.510Z,16.44
2023-05-08T15:58:18.627Z,16.37
2023-05-08T16:00:46.106Z,16.35
2023-05-08T16:03:12.898Z,16.33
2023-05-08T16:05:39.857Z,16.32
2023-05-08T16:08:12.554Z,16.36
2023-05-08T16:10:39.701Z,16.39
2023-05-08T16:13:06.559Z,16.43
2023-05-08T16:15:33.175Z,16.43
2023-05-08T16:17:59.992Z,16.41
2023-05-08T16:20:26.617Z,16.39
2023-05-08T16:22:54.054Z,16.39
2023-05-08T16:25:22.302Z,16.41
2023-05-08T16:27:49.485Z,16.42
2023-05-08T16:30:16.492Z,16.43
2023-05-08T16:32:45.944Z,16.46
2023-05-08T16:35:13.463Z,16.45
2023-05-08T16:37:40.410Z,16.40
2023-05-08T16:40:07.896Z,16.37
2023-05-08T16:42:36.160Z,16.34
2023-05-08T16:45:02.870Z,16.29
2023-05-08T16:47:29.418Z,16.24
2023-05-08T16:49:56.064Z,16.21
2023-05-08T16:52:22.724Z,16.21
2023-05-08T16:54:49.251Z,16.19
2023-05-08T16:57:16.061Z,16.18
2023-05-08T16:59:44.359Z,16.15
2023-05-08T17:02:12.000Z,16.14
2023-05-08T17:04:38.525Z,16.11
2023-05-08T17:07:05.953Z,16.11
2023-05-08T17:09:34.928Z,16.11
2023-05-08T17:12:02.273Z,16.11
2023-05-08T17:14:29.285Z,16.09
2023-05-08T17:16:57.449Z,16.05
2023-05-08T17:19:24.087Z,16.05
2023-05-08T17:21:50.761Z,16.06
2023-05-08T17:24:17.400Z,16.08
2023-05-08T17:26:44.106Z,16.07
2023-05-08T17:29:11.428Z,16.08
2023-05-08T17:31:38.029Z,16.05
2023-05-08T17:34:06.347Z,16.05
2023-05-08T17:36:33.125Z,16.05
2023-05-08T17:39:00.193Z,16.08
2023-05-08T17:41:27.040Z,16.11
2023-05-08T17:43:54.077Z,16.14
2023-05-08T17:46:21.089Z,16.16
2023-05-08T17:48:47.875Z,16.15
2023-05-08T17:51:16.167Z,16.14
2023-05-08T17:53:42.855Z,16.14
2023-05-08T17:56:09.464Z,16.11
2023-05-08T17:58:35.967Z,16.10
2023-05-08T18:01:02.858Z,16.08
2023-05-08T18:03:29.935Z,16.08
2023-05-08T18:05:56.761Z,16.08
2023-05-08T18:08:24.925Z,16.07
2023-05-08T18:10:51.520Z,16.06
2023-05-08T18:13:18.270Z,16.04
2023-05-08T18:15:44.899Z,15.98
2023-05-08T18:18:11.614Z,15.96
2023-05-08T18:20:38.249Z,15.95
2023-05-08T18:23:04.728Z,15.94
2023-05-08T18:25:32.813Z,15.94
2023-05-08T18:28:00.599Z,15.95
2023-05-08T18:30:27.389Z,15.97
2023-05-08T18:32:54.131Z,15.98
2023-05-08T18:35:21.799Z,15.96
2023-05-08T18:37:48.357Z,15.94
2023-05-08T18:40:15.074Z,15.92
2023-05-08T18:42:43.350Z,15.92
2023-05-08T18:45:10.571Z,15.92
2023-05-08T18:47:37.257Z,15.91
2023-05-08T18:50:04.281Z,15.90
2023-05-08T18:52:30.860Z,15.89
2023-05-08T18:54:57.482Z,15.88
2023-05-08T18:57:24.466Z,15.85
2023-05-08T18:59:52.565Z,15.83
2023-05-08T19:02:19.102Z,15.84
2023-05-08T19:04:46.323Z,15.87
2023-05-08T19:07:13.137Z,15.89
2023-05-08T19:09:40.098Z,15.89
2023-05-08T19:12:06.790Z,15.90
2023-05-08T19:14:33.704Z,15.91
2023-05-08T19:17:02.240Z,15.93
2023-05-08T19:19:29.095Z,15.94
2023-05-08T19:21:55.620Z,15.89
2023-05-08T19:24:24.256Z,15.81
2023-05-08T19:26:50.843Z,15.74
2023-05-08T19:29:17.541Z,15.69
2023-05-08T19:31:44.348Z,15.67
2023-05-08T19:34:12.679Z,15.65
2023-05-08T19:36:39.371Z,15.64
2023-05-08T19:39:06.295Z,15.63
2023-05-08T19:41:33.178Z,15.61
2023-05-08T19:43:59.934Z,15.57
2023-05-08T19:46:26.980Z,15.57
2023-05-08T19:48:53.743Z,15.59
2023-05-08T19:51:22.180Z,15.57
2023-05-08T19:53:49.060Z,15.57
2023-05-08T19:56:15.843Z,15.58
2023-05-08T19:58:43.105Z,15.58
2023-05-08T20:01:09.656Z,15.57
2023-05-08T20:03:36.353Z,15.58
2023-05-08T20:06:03.287Z,15.58
2023-05-08T20:08:31.217Z,15.61
2023-05-08T20:11:02.254Z,15.60
2023-05-08T20:13:29.279Z,15.61
2023-05-08T20:15:56.088Z,15.62
2023-05-08T20:18:26.148Z,15.63
2023-05-08T20:20:52.663Z,15.64
2023-05-08T20:23:19.192Z,15.64
2023-05-08T20:25:48.223Z,15.62
2023-05-08T20:28:15.121Z,15.59
2023-05-08T20:30:41.762Z,15.56
2023-05-08T20:33:08.302Z,15.56
2023-05-08T20:35:35.410Z,15.55
2023-05-08T20:38:02.113Z,15.55
2023-05-08T20:40:28.792Z,15.54
2023-05-08T20:42:56.820Z,15.56
2023-05-08T20:45:23.354Z,15.57
2023-05-08T20:47:50.015Z,15.58
2023-05-08T20:50:16.796Z,15.59
2023-05-08T20:52:43.589Z,15.59
2023-05-08T20:55:10.316Z,15.60
2023-05-08T20:57:36.975Z,15.61
2023-05-08T21:00:05.787Z,15.61
2023-05-08T21:02:33.766Z,15.58
2023-05-08T21:05:00.567Z,15.54
2023-05-08T21:07:27.425Z,15.50
2023-05-08T21:09:53.876Z,15.46
2023-05-08T21:12:20.695Z,15.44
2023-05-08T21:14:47.404Z,15.44
2023-05-08T21:17:15.427Z,15.45
2023-05-08T21:19:42.109Z,15.44
2023-05-08T21:22:09.384Z,15.45
2023-05-08T21:24:37.179Z,15.45
2023-05-08T21:27:03.760Z,15.45
2023-05-08T21:29:30.449Z,15.43
2023-05-08T21:31:57.341Z,15.42
2023-05-08T21:34:25.542Z,15.42
2023-05-08T21:36:52.266Z,15.40
2023-05-08T21:39:18.925Z,15.40
2023-05-08T21:41:46.431Z,15.37
2023-05-08T21:44:13.218Z,15.35
2023-05-08T21:46:39.906Z,15.34
2023-05-08T21:49:06.937Z,15.30
2023-05-08T21:51:35.016Z,15.26
2023-05-08T21:54:01.909Z,15.24
2023-05-08T21:56:28.792Z,15.23
2023-05-08T21:58:55.867Z,15.24
2023-05-08T22:01:22.572Z,15.26
2023-05-08T22:03:49.675Z,15.26
2023-05-08T22:06:18.517Z,15.26
2023-05-08T22:08:46.685Z,15.24
2023-05-08T22:11:13.350Z,15.23
2023-05-08T22:13:39.978Z,15.20
2023-05-08T22:16:07.297Z,15.17
2023-05-08T22:18:33.861Z,15.15
2023-05-08T22:21:00.582Z,15.11
2023-05-08T22:23:27.925Z,15.06
2023-05-08T22:25:55.948Z,15.05
2023-05-08T22:28:22.442Z,15.05
2023-05-08T22:30:49.058Z,15.06
2023-05-08T22:33:15.853Z,15.07
2023-05-08T22:35:42.381Z,15.07
2023-05-08T22:38:08.996Z,15.09
2023-05-08T22:40:35.793Z,15.11
2023-05-08T22:43:03.893Z,15.12
2023-05-08T22:45:31.848Z,15.14
2023-05-08T22:47:58.567Z,15.16
2023-05-08T22:50:25.232Z,15.14
2023-05-08T22:52:51.887Z,15.08
2023-05-08T22:55:18.540Z,15.08
2023-05-08T22:57:45.191Z,15.08
2023-05-08T23:00:13.800Z,15.08
2023-05-08T23:02:40.393Z,15.05
2023-05-08T23:05:07.885Z,15.04
2023-05-08T23:07:34.441Z,15.03
2023-05-08T23:10:00.986Z,15.02
2023-05-08T23:12:27.580Z,15.01
2023-05-08T23:14:55.071Z,15.02
2023-05-08T23:17:22.931Z,15.02
2023-05-08T23:19:49.616Z,15.01
2023-05-08T23:22:16.299Z,15.01
2023-05-08T23:24:43.266Z,15.02
2023-05-08T23:27:09.894Z,15.01
2023-05-08T23:29:36.576Z,14.97
2023-05-08T23:32:03.086Z,14.94
2023-05-08T23:34:31.983Z,14.90
2023-05-08T23:37:00.934Z,14.91
2023-05-08T23:39:27.441Z,14.89
2023-05-08T23:41:54.126Z,14.88
2023-05-08T23:44:20.800Z,14.88
2023-05-08T23:46:47.349Z,14.87
2023-05-08T23:49:14.379Z,14.86
2023-05-08T23:51:42.268Z,14.86
2023-05-08T23:54:09.088Z,14.88
2023-05-08T23:56:35.567Z,14.88
2023-05-08T23:59:02.450Z,14.89
